createdAt,value
2019-06-08T00:01:12.164Z,15.90
2019-06-08T00:06:18.824Z,15.80
2019-06-08T00:11:23.907Z,15.80
2019-06-08T00:16:28.854Z,15.70
2019-06-08T00:21:33.874Z,15.60
2019-06-08T00:26:38.926Z,15.40
2019-06-08T00:31:44.034Z,15.40
2019-06-08T00:36:48.910Z,15.30
2019-06-08T00:41:53.933Z,15.30
2019-06-08T00:46:58.887Z,15.20
2019-06-08T00:52:04.104Z,15.20
2019-06-08T00:57:09.193Z,15.10
2019-06-08T01:02:14.211Z,15.10
2019-06-08T01:07:19.932Z,15.10
2019-06-08T01:12:24.936Z,15.10
2019-06-08T01:17:29.971Z,15.00
2019-06-08T01:22:34.926Z,15.00
2019-06-08T01:27:39.909Z,14.90
2019-06-08T01:32:45.036Z,14.90
2019-06-08T01:37:50.082Z,14.90
2019-06-08T01:42:55.098Z,14.80
2019-06-08T01:48:15.991Z,14.70
2019-06-08T01:53:09.060Z,14.50
2019-06-08T01:58:14.106Z,14.50
2019-06-08T02:03:19.258Z,14.50
2019-06-08T02:08:24.447Z,14.50
2019-06-08T02:13:29.450Z,14.50
2019-06-08T02:18:44.110Z,14.50
2019-06-08T02:23:41.024Z,14.60
2019-06-08T02:28:46.107Z,14.60
2019-06-08T02:33:51.213Z,14.50
2019-06-08T02:38:56.320Z,14.40
2019-06-08T02:44:01.272Z,14.40
2019-06-08T02:49:06.606Z,14.50
2019-06-08T02:54:12.147Z,14.50
2019-06-08T02:59:20.311Z,14.40
2019-06-08T03:04:27.302Z,14.50
2019-06-08T03:09:34.737Z,14.60
2019-06-08T03:14:42.117Z,14.60
2019-06-08T03:19:47.268Z,14.70
2019-06-08T03:24:52.243Z,14.90
2019-06-08T03:29:57.231Z,14.90
2019-06-08T03:35:02.211Z,14.90
2019-06-08T03:40:07.330Z,15.00
2019-06-08T03:45:13.319Z,15.00
2019-06-08T03:50:18.281Z,15.10
2019-06-08T03:55:23.401Z,15.40
2019-06-08T04:00:28.511Z,15.60
2019-06-08T04:05:33.601Z,15.90
2019-06-08T04:10:39.925Z,16.50
2019-06-08T04:15:46.974Z,16.90
2019-06-08T04:20:52.123Z,17.30
2019-06-08T04:25:57.146Z,17.50
2019-06-08T04:31:02.203Z,17.60
2019-06-08T04:36:07.265Z,17.80
2019-06-08T04:41:12.271Z,18.10
2019-06-08T04:46:17.271Z,18.30
2019-06-08T04:51:22.251Z,18.40
2019-06-08T04:56:27.274Z,18.50
2019-06-08T05:01:32.245Z,18.60
2019-06-08T05:06:38.892Z,18.80
2019-06-08T05:11:45.237Z,19.00
2019-06-08T05:16:50.430Z,19.30
2019-06-08T05:21:55.382Z,19.60
2019-06-08T05:27:00.430Z,19.90
2019-06-08T05:32:05.566Z,20.40
2019-06-08T05:37:10.521Z,20.80
2019-06-08T05:42:15.505Z,21.10
2019-06-08T05:47:20.590Z,21.50
2019-06-08T05:52:25.569Z,21.40
2019-06-08T05:57:30.489Z,21.10
2019-06-08T06:02:35.578Z,21.20
2019-06-08T06:07:40.615Z,21.30
2019-06-08T06:12:46.863Z,21.40
2019-06-08T06:17:52.035Z,21.40
2019-06-08T06:22:58.574Z,21.40
2019-06-08T06:28:06.217Z,21.40
2019-06-08T06:33:10.621Z,21.50
2019-06-08T06:38:15.654Z,21.50
2019-06-08T06:43:20.842Z,21.60
2019-06-08T06:48:25.878Z,21.80
2019-06-08T06:53:30.770Z,21.80
2019-06-08T06:58:35.718Z,21.80
2019-06-08T07:03:40.762Z,21.60
2019-06-08T07:08:46.216Z,21.50
2019-06-08T07:13:51.190Z,21.30
2019-06-08T07:18:56.159Z,21.40
2019-06-08T07:24:01.126Z,21.80
2019-06-08T07:29:06.152Z,22.10
2019-06-08T07:34:11.135Z,22.00
2019-06-08T07:39:16.154Z,22.20
2019-06-08T07:44:21.153Z,22.20
2019-06-08T07:49:26.123Z,22.00
2019-06-08T07:54:31.039Z,21.80
2019-06-08T07:59:36.015Z,22.30
2019-06-08T08:04:41.038Z,22.70
2019-06-08T08:09:46.157Z,22.60
2019-06-08T08:14:51.349Z,22.30
2019-06-08T08:19:57.307Z,21.80
2019-06-08T08:25:05.003Z,21.70
2019-06-08T08:30:11.050Z,21.70
2019-06-08T08:35:18.423Z,21.60
2019-06-08T08:40:23.723Z,21.60
2019-06-08T08:45:29.134Z,21.90
2019-06-08T08:50:34.158Z,22.00
2019-06-08T08:55:39.250Z,21.90
2019-06-08T09:00:44.196Z,21.70
2019-06-08T09:05:49.215Z,21.90
2019-06-08T09:10:55.380Z,22.50
2019-06-08T09:16:03.993Z,22.50
2019-06-08T09:21:08.384Z,22.00
2019-06-08T09:26:13.703Z,21.90
2019-06-08T09:31:18.876Z,21.80
2019-06-08T09:36:23.983Z,21.70
2019-06-08T09:41:31.236Z,21.80
2019-06-08T09:46:38.362Z,21.80
2019-06-08T09:51:42.269Z,21.60
2019-06-08T09:56:47.854Z,21.50
2019-06-08T10:01:54.021Z,21.30
2019-06-08T10:07:00.685Z,21.30
2019-06-08T10:12:09.690Z,21.30
2019-06-08T10:17:13.971Z,21.60
2019-06-08T10:22:18.996Z,22.00
2019-06-08T10:27:24.014Z,22.30
2019-06-08T10:32:28.973Z,22.00
2019-06-08T10:37:33.991Z,22.00
2019-06-08T10:42:40.147Z,22.40
2019-06-08T10:47:47.748Z,22.70
2019-06-08T10:52:52.094Z,22.90
2019-06-08T10:57:58.003Z,22.80
2019-06-08T11:03:05.304Z,23.00
2019-06-08T11:08:14.107Z,22.60
2019-06-08T11:13:18.688Z,22.30
2019-06-08T11:18:23.203Z,22.70
2019-06-08T11:23:28.808Z,23.20
2019-06-08T11:28:33.938Z,23.10
2019-06-08T11:33:39.135Z,22.50
2019-06-08T11:38:47.667Z,22.60
2019-06-08T11:43:51.731Z,22.20
2019-06-08T11:48:57.792Z,21.80
2019-06-08T11:54:05.042Z,22.00
2019-06-08T11:59:14.312Z,22.00
2019-06-08T12:04:18.581Z,22.10
2019-06-08T12:09:24.593Z,22.00
2019-06-08T12:14:29.673Z,22.00
2019-06-08T12:19:37.541Z,21.90
2019-06-08T12:24:42.541Z,21.50
2019-06-08T12:29:52.382Z,21.10
2019-06-08T12:34:59.824Z,20.90
2019-06-08T12:40:07.596Z,20.80
2019-06-08T12:45:13.373Z,20.50
2019-06-08T12:50:19.972Z,20.20
2019-06-08T12:55:25.572Z,20.10
2019-06-08T13:00:30.834Z,20.00
2019-06-08T13:05:37.922Z,19.90
2019-06-08T13:10:44.175Z,20.00
2019-06-08T13:15:49.408Z,20.00
2019-06-08T13:20:54.452Z,20.20
2019-06-08T13:25:59.429Z,20.40
2019-06-08T13:31:04.454Z,20.70
2019-06-08T13:36:10.346Z,21.20
2019-06-08T13:41:15.402Z,21.50
2019-06-08T13:46:22.363Z,21.80
2019-06-08T13:51:28.189Z,22.70
2019-06-08T13:56:33.346Z,23.30
2019-06-08T14:01:38.431Z,24.60
2019-06-08T14:06:43.457Z,23.40
2019-06-08T14:11:48.351Z,23.30
2019-06-08T14:16:54.242Z,23.30
2019-06-08T14:21:59.190Z,24.10
2019-06-08T14:27:04.241Z,24.70
2019-06-08T14:32:11.593Z,25.40
2019-06-08T14:37:17.894Z,26.00
2019-06-08T14:42:29.705Z,26.30
2019-06-08T14:47:31.761Z,27.40
2019-06-08T14:52:38.123Z,26.50
2019-06-08T14:57:43.471Z,25.50
2019-06-08T15:02:49.876Z,25.30
2019-06-08T15:07:55.041Z,25.70
2019-06-08T15:13:00.062Z,25.70
2019-06-08T15:18:05.173Z,26.00
2019-06-08T15:23:11.950Z,26.40
2019-06-08T15:28:18.957Z,25.80
2019-06-08T15:33:24.892Z,26.50
2019-06-08T15:38:32.365Z,26.70
2019-06-08T15:43:39.979Z,26.50
2019-06-08T15:48:43.649Z,26.80
2019-06-08T15:53:49.626Z,26.80
2019-06-08T15:58:54.497Z,27.10
2019-06-08T16:03:59.455Z,27.10
2019-06-08T16:09:07.206Z,26.70
2019-06-08T16:14:12.318Z,26.50
2019-06-08T16:19:17.330Z,29.40
2019-06-08T16:24:22.379Z,28.40
2019-06-08T16:29:27.318Z,28.00
2019-06-08T16:34:33.516Z,28.00
2019-06-08T16:39:39.008Z,28.50
2019-06-08T16:44:44.223Z,28.20
2019-06-08T16:49:49.424Z,28.60
2019-06-08T16:54:54.523Z,28.10
2019-06-08T16:59:59.535Z,27.40
2019-06-08T17:05:07.788Z,27.10
2019-06-08T17:10:13.719Z,27.40
2019-06-08T17:15:19.008Z,27.00
2019-06-08T17:20:24.339Z,26.60
2019-06-08T17:25:30.361Z,27.60
2019-06-08T17:30:36.401Z,27.20
2019-06-08T17:35:42.555Z,27.20
2019-06-08T17:40:47.567Z,26.90
2019-06-08T17:45:52.528Z,26.80
2019-06-08T17:50:58.716Z,26.40
2019-06-08T17:56:03.829Z,26.70
2019-06-08T18:01:08.951Z,26.30
2019-06-08T18:06:14.030Z,26.50
2019-06-08T18:11:19.001Z,26.50
2019-06-08T18:16:24.131Z,26.50
2019-06-08T18:21:29.138Z,24.80
2019-06-08T18:26:34.397Z,23.20
2019-06-08T18:31:42.489Z,22.10
2019-06-08T18:36:47.962Z,21.50
2019-06-08T18:41:53.062Z,21.10
2019-06-08T18:46:58.206Z,20.70
2019-06-08T18:52:03.250Z,20.30
2019-06-08T18:57:08.932Z,20.10
2019-06-08T19:02:14.874Z,19.70
2019-06-08T19:07:19.962Z,19.30
2019-06-08T19:12:24.978Z,19.00
2019-06-08T19:17:30.566Z,18.50
2019-06-08T19:27:45.113Z,18.00
2019-06-08T19:32:50.539Z,17.70
2019-06-08T19:37:54.058Z,17.40
2019-06-08T19:43:01.381Z,17.20
2019-06-08T19:48:08.284Z,17.00
2019-06-08T19:53:13.357Z,16.60
2019-06-08T19:58:18.363Z,16.40
2019-06-08T20:03:23.403Z,16.20
2019-06-08T20:08:29.164Z,16.10
2019-06-08T20:13:34.753Z,15.90
2019-06-08T20:18:41.522Z,15.80
2019-06-08T20:23:48.233Z,15.60
2019-06-08T20:29:11.249Z,15.30
2019-06-08T20:33:59.758Z,15.20
2019-06-08T20:44:13.674Z,14.90
2019-06-08T20:49:18.665Z,14.70
2019-06-08T20:54:23.692Z,14.60
2019-06-08T20:59:33.194Z,14.40
2019-06-08T21:04:35.357Z,14.30
2019-06-08T21:09:40.260Z,14.20
2019-06-08T21:14:46.450Z,14.00
2019-06-08T21:19:53.038Z,13.80
2019-06-08T21:25:00.235Z,13.70
2019-06-08T21:30:20.230Z,13.50
2019-06-08T21:35:18.201Z,13.40
2019-06-08T21:40:24.503Z,13.20
2019-06-08T21:45:29.555Z,13.10
2019-06-08T21:50:36.955Z,12.90
2019-06-08T21:55:41.174Z,12.90
2019-06-08T22:00:49.512Z,12.80
2019-06-08T22:05:56.502Z,12.70
2019-06-08T22:11:02.663Z,12.50
2019-06-08T22:16:08.369Z,12.30
2019-06-08T22:21:13.470Z,12.10
2019-06-08T22:26:18.442Z,12.00
2019-06-08T22:31:23.391Z,11.90
2019-06-08T22:36:28.403Z,11.90
2019-06-08T22:41:33.386Z,11.80
2019-06-08T22:46:38.322Z,11.80
2019-06-08T22:51:43.265Z,11.70
2019-06-08T22:56:48.202Z,11.70
2019-06-08T23:01:53.343Z,11.70
2019-06-08T23:07:02.868Z,11.70
2019-06-08T23:12:09.174Z,11.70
2019-06-08T23:17:12.726Z,11.70
2019-06-08T23:22:17.751Z,11.60
2019-06-08T23:27:22.710Z,11.40
2019-06-08T23:32:27.799Z,11.30
2019-06-08T23:37:32.810Z,11.20
2019-06-08T23:42:38.564Z,11.10
2019-06-08T23:47:43.702Z,11.00
2019-06-08T23:52:49.641Z,11.00
2019-06-08T23:57:54.522Z,10.90
